Time;durP1;ratioP1;P1;durP2;ratioP2;P2;SDS_P1;SDS_P2;PMS_P1;PMS_P2;Temp;Humidity;BMP_temperature;BMP_pressure;BME280_temperature;BME280_humidity;BME280_pressure;Samples;Min_cycle;Max_cycle;Signal;HPM_P1;HPM_P2
2022/01/18 00:01:14;;;;;;;3.53;2.90;;;;;;;-6.32;62.51;100184.28;4976223;28;20046;-69
2022/01/18 00:03:40;;;;;;;3.17;2.80;;;;;;;-6.37;62.64;100187.97;4982781;28;20058;-67
2022/01/18 00:06:05;;;;;;;3.63;2.67;;;;;;;-6.38;62.37;100201.84;4982323;28;20580;-69
2022/01/18 00:08:31;;;;;;;8.90;3.23;;;;;;;-6.40;62.75;100195.88;4977344;28;20490;-67
2022/01/18 00:10:57;;;;;;;3.70;2.40;;;;;;;-6.41;62.71;100208.00;4976637;28;20463;-67
2022/01/18 00:13:43;;;;;;;6.17;3.13;;;;;;;-6.41;62.43;100212.34;4975975;28;20038;-68
2022/01/18 00:16:38;;;;;;;2.95;2.75;;;;;;;-6.38;62.42;100228.59;4975938;28;20031;-69
2022/01/18 00:19:10;;;;;;;2.45;2.25;;;;;;;-6.33;62.59;100238.78;4976006;28;20502;-70
2022/01/18 00:24:40;;;;;;;3.03;2.72;;;;;;;-6.37;63.77;100255.34;4954279;29;20050;-70
2022/01/18 00:27:10;;;;;;;2.95;2.75;;;;;;;-6.40;63.77;100260.66;4971448;28;20122;-69
2022/01/18 00:29:47;;;;;;;3.60;2.85;;;;;;;-6.46;63.27;100264.38;4975917;28;20333;-70
2022/01/18 00:35:06;;;;;;;4.05;3.00;;;;;;;-6.42;63.86;100283.22;4965522;28;20046;-68
2022/01/18 00:37:35;;;;;;;5.17;2.83;;;;;;;-6.44;62.99;100290.22;4975831;28;20041;-66
2022/01/18 00:40:03;;;;;;;3.30;2.88;;;;;;;-6.47;63.25;100288.59;4975949;28;20041;-69
2022/01/18 00:42:29;;;;;;;3.53;2.60;;;;;;;-6.44;63.11;100290.22;4977212;28;20494;-68
2022/01/18 00:44:54;;;;;;;3.60;3.30;;;;;;;-6.42;62.71;100303.94;4976537;28;20118;-68
2022/01/18 00:47:20;;;;;;;4.50;3.07;;;;;;;-6.73;63.18;100258.63;4975366;28;20114;-69
2022/01/18 00:49:47;;;;;;;4.50;2.73;;;;;;;-6.48;63.14;100327.53;4975328;28;20134;-67
2022/01/18 00:52:18;;;;;;;4.78;2.45;;;;;;;-6.55;62.92;100319.19;4975301;28;20030;-66
2022/01/18 00:54:45;;;;;;;3.35;2.80;;;;;;;-6.59;62.95;100315.88;4975271;28;20272;-69
2022/01/18 00:57:12;;;;;;;3.15;2.40;;;;;;;-6.48;63.16;100333.53;4975223;28;20033;-69
2022/01/18 00:59:40;;;;;;;2.92;2.50;;;;;;;-6.47;63.02;100340.41;4975334;28;20098;-67
2022/01/18 01:02:06;;;;;;;3.40;3.15;;;;;;;-6.49;62.12;100347.41;4975113;28;20090;-68
2022/01/18 01:04:36;;;;;;;4.37;2.47;;;;;;;-6.56;62.20;100341.66;4975176;28;20134;-68
2022/01/18 01:07:01;;;;;;;5.43;2.63;;;;;;;-6.56;62.15;100341.66;4973958;28;20205;-67
2022/01/18 01:09:27;;;;;;;2.90;2.47;;;;;;;-6.60;63.07;100353.06;4975191;28;20513;-68
2022/01/18 01:11:52;;;;;;;2.87;2.63;;;;;;;-6.52;62.92;100368.25;4975387;28;20165;-68
2022/01/18 01:14:22;;;;;;;2.80;2.30;;;;;;;-6.57;62.61;100360.69;4975240;28;20050;-66
2022/01/18 01:17:13;;;;;;;3.45;2.50;;;;;;;-6.63;62.26;100353.19;4975444;28;20418;-67
2022/01/18 01:46:38;;;;;;;4.13;2.47;;;;;;;-6.73;61.61;100437.31;4974458;28;20042;-68
2022/01/18 01:49:07;;;;;;;2.60;2.40;;;;;;;-6.68;61.71;100450.91;4974807;28;20035;-68
2022/01/18 01:51:34;;;;;;;6.22;3.85;;;;;;;-6.99;61.02;100409.88;4974366;28;20384;-68
2022/01/18 01:54:03;;;;;;;3.80;3.42;;;;;;;-6.61;61.64;100482.63;4973732;28;20042;-68
2022/01/18 01:56:30;;;;;;;5.60;2.97;;;;;;;-6.70;61.16;100470.00;4974474;28;20042;-69
2022/01/18 01:58:55;;;;;;;3.78;3.22;;;;;;;-6.73;61.55;100478.75;4973373;28;20038;-68
2022/01/18 02:01:21;;;;;;;6.57;2.70;;;;;;;-6.71;60.92;100491.63;4974425;28;20388;-69
2022/01/18 02:03:48;;;;;;;4.27;2.73;;;;;;;-6.88;60.77;100482.81;4974243;28;20065;-68
2022/01/18 02:06:17;;;;;;;3.58;2.83;;;;;;;-6.67;61.31;100519.94;4973740;28;20189;-68
2022/01/18 02:08:44;;;;;;;2.45;2.25;;;;;;;-6.64;60.97;100534.56;4973986;28;20043;-68
2022/01/18 02:11:10;;;;;;;3.00;2.80;;;;;;;-6.65;60.58;100532.84;4974384;28;20039;-68
2022/01/18 02:13:36;;;;;;;2.95;2.75;;;;;;;-6.66;60.88;100537.16;4973916;28;20131;-66
2022/01/18 02:23:58;;;;;;;4.28;2.90;;;;;;;-6.80;61.16;100554.16;4975384;28;20058;-67
2022/01/18 02:26:23;;;;;;;3.40;2.50;;;;;;;-6.74;61.41;100569.44;4974310;28;20565;-67
2022/01/18 02:28:49;;;;;;;3.17;2.87;;;;;;;-6.79;61.01;100577.41;4974206;28;20039;-65
2022/01/18 02:31:14;;;;;;;4.37;3.17;;;;;;;-6.72;60.97;100580.59;4974035;28;20049;-67
2022/01/18 02:33:43;;;;;;;4.97;2.65;;;;;;;-6.71;60.59;100590.06;4973385;28;20043;-69
2022/01/18 02:36:09;;;;;;;2.70;2.50;;;;;;;-6.70;60.50;100587.41;4973240;28;20043;-66
2022/01/18 02:38:35;;;;;;;3.95;2.72;;;;;;;-6.94;60.24;100541.72;4973409;28;20125;-69
2022/01/18 02:41:01;;;;;;;3.22;2.58;;;;;;;-6.83;60.42;100570.66;4973481;28;20034;-67
2022/01/18 02:46:11;;;;;;;2.83;2.63;;;;;;;-6.84;59.81;100584.50;4973155;28;20082;-68
2022/01/18 02:48:37;;;;;;;7.63;2.90;;;;;;;-6.76;59.80;100595.41;4972127;28;20066;-70
2022/01/18 02:51:03;;;;;;;6.70;2.77;;;;;;;-6.88;60.13;100604.50;4973531;28;20050;-70
2022/01/18 02:53:29;;;;;;;3.63;2.40;;;;;;;-6.81;59.89;100619.78;4973050;28;20049;-68
2022/01/18 02:55:57;;;;;;;2.47;2.27;;;;;;;-6.85;59.98;100616.47;4973211;28;20042;-68
2022/01/18 02:58:27;;;;;;;4.93;3.00;;;;;;;-6.74;60.24;100639.38;4973163;28;20035;-69
2022/01/18 03:03:35;;;;;;;3.38;2.00;;;;;;;-6.76;60.60;100642.03;4971992;28;20066;-68
2022/01/18 03:06:26;;;;;;;5.35;3.58;;;;;;;-7.02;59.84;100617.06;4973419;28;20057;-67
2022/01/18 03:08:51;;;;;;;5.73;2.20;;;;;;;-6.76;59.35;100670.50;4973042;28;20030;-69
2022/01/18 03:11:17;;;;;;;2.40;2.20;;;;;;;-6.74;60.03;100662.69;4972901;28;20042;-68
2022/01/18 03:13:44;;;;;;;5.43;2.43;;;;;;;-6.83;58.93;100650.91;4973179;28;20159;-68
2022/01/18 03:16:33;;;;;;;2.63;2.15;;;;;;;-6.78;59.80;100672.31;4974050;28;20186;-68
2022/01/18 03:18:59;;;;;;;2.53;2.33;;;;;;;-6.82;59.81;100675.91;4973411;28;20146;-69
2022/01/18 03:21:25;;;;;;;3.30;3.00;;;;;;;-6.78;59.42;100687.84;4973032;28;20058;-69
2022/01/18 03:23:54;;;;;;;4.93;2.53;;;;;;;-6.83;58.88;100684.59;4973128;28;20035;-68
2022/01/18 03:26:30;;;;;;;4.35;2.72;;;;;;;-6.80;59.53;100694.81;4973042;28;20049;-68
2022/01/18 03:28:55;;;;;;;2.70;2.50;;;;;;;-6.80;58.85;100697.41;4972795;28;20502;-68
2022/01/18 03:31:21;;;;;;;4.00;2.83;;;;;;;-6.77;59.08;100712.84;4955691;28;20038;-68
2022/01/18 03:33:46;;;;;;;2.40;2.20;;;;;;;-6.79;59.31;100706.88;4972811;28;20039;-69
2022/01/18 03:36:12;;;;;;;2.43;2.33;;;;;;;-6.80;59.38;100706.94;4972577;28;20031;-69
2022/01/18 03:38:37;;;;;;;2.70;2.50;;;;;;;-6.75;59.29;100715.38;4973095;28;20537;-69
2022/01/18 03:41:03;;;;;;;3.30;2.93;;;;;;;-6.80;59.35;100714.69;4972850;28;20039;-72
2022/01/18 03:43:30;;;;;;;2.83;2.63;;;;;;;-6.76;59.41;100732.66;4972813;28;20039;-68
2022/01/18 03:46:01;;;;;;;2.72;2.53;;;;;;;-6.78;60.02;100731.03;4972852;28;20142;-68
2022/01/18 03:48:31;;;;;;;3.30;3.00;;;;;;;-6.84;59.98;100723.47;4972773;28;20031;-68
2022/01/18 03:50:57;;;;;;;2.75;2.33;;;;;;;-6.82;59.87;100725.13;4971867;28;20043;-68
2022/01/18 03:53:23;;;;;;;2.67;2.47;;;;;;;-6.90;60.56;100725.38;4972742;28;20098;-68
2022/01/18 03:55:50;;;;;;;2.63;2.47;;;;;;;-6.82;59.99;100745.84;4972503;28;20139;-68
2022/01/18 03:58:16;;;;;;;2.45;2.33;;;;;;;-6.90;60.43;100727.13;4972632;28;20035;-69
2022/01/18 04:00:41;;;;;;;2.93;2.37;;;;;;;-6.84;60.76;100751.97;4972641;28;20089;-68
2022/01/18 04:03:08;;;;;;;2.97;2.67;;;;;;;-7.04;60.20;100732.78;4972146;28;20058;-70
2022/01/18 04:05:34;;;;;;;5.47;2.92;;;;;;;-6.84;60.86;100763.16;4971454;28;20047;-69
2022/01/18 04:08:00;;;;;;;4.87;3.00;;;;;;;-6.87;61.08;100765.88;4970023;28;20096;-69
2022/01/18 04:10:25;;;;;;;3.80;2.90;;;;;;;-7.04;60.91;100737.94;4974664;28;20026;-69
2022/01/18 04:12:51;;;;;;;2.93;2.63;;;;;;;-6.90;61.46;100774.59;4974292;28;20446;-66
2022/01/18 04:15:18;;;;;;;2.67;2.47;;;;;;;-6.99;61.29;100751.56;4976139;28;20540;-65
2022/01/18 04:18:04;;;;;;;3.00;2.80;;;;;;;-6.92;61.10;100778.13;4976472;28;20042;-68
2022/01/18 04:26:03;;;;;;;3.28;2.97;;;;;;;-6.99;62.30;100774.03;4976462;28;20051;-68
2022/01/18 04:28:42;;;;;;;4.65;3.25;;;;;;;-7.02;62.52;100776.72;4975825;28;20502;-66
2022/01/18 04:31:09;;;;;;;4.45;2.83;;;;;;;-6.96;62.43;100781.69;4975868;28;20042;-67
2022/01/18 04:33:38;;;;;;;4.68;2.92;;;;;;;-6.96;62.11;100786.88;4975724;28;20138;-68
2022/01/18 04:36:05;;;;;;;5.53;2.47;;;;;;;-6.85;62.56;100792.53;4975622;28;20047;-67
2022/01/18 04:38:31;;;;;;;3.08;2.78;;;;;;;-6.87;62.65;100802.97;4975338;28;20035;-66
2022/01/18 04:41:04;;;;;;;5.40;2.77;;;;;;;-6.96;62.17;100792.88;4975553;28;20203;-67
2022/01/18 04:49:03;;;;;;;5.03;2.60;;;;;;;-7.15;62.84;100776.28;4973923;28;20049;-68
2022/01/18 04:51:29;;;;;;;3.08;2.72;;;;;;;-6.94;63.28;100822.19;4975467;28;20042;-68
2022/01/18 04:53:57;;;;;;;3.57;3.03;;;;;;;-6.99;62.79;100818.03;4975483;28;20031;-69
2022/01/18 04:59:01;;;;;;;3.33;2.90;;;;;;;-6.87;62.85;100828.00;4975280;28;20043;-70
2022/01/18 05:01:26;;;;;;;3.42;2.67;;;;;;;-6.92;62.73;100829.91;4975822;28;20034;-69
2022/01/18 05:03:52;;;;;;;3.00;2.80;;;;;;;-6.87;63.23;100849.56;4976727;28;20081;-68
2022/01/18 05:06:19;;;;;;;3.37;3.07;;;;;;;-6.88;63.14;100863.41;4976645;28;20062;-68
2022/01/18 05:08:45;;;;;;;3.65;3.20;;;;;;;-6.85;63.10;100856.44;4975515;28;20141;-70
2022/01/18 05:11:14;;;;;;;2.70;2.50;;;;;;;-6.95;63.19;100853.28;4976281;28;20043;-67
2022/01/18 05:21:28;;;;;;;3.40;3.10;;;;;;;-6.86;63.41;100930.69;4979538;28;20106;-67
2022/01/18 05:23:56;;;;;;;5.80;3.17;;;;;;;-6.93;63.99;100932.63;4976285;28;20137;-68
2022/01/18 05:26:23;;;;;;;4.10;3.58;;;;;;;-6.96;63.90;100945.63;4975441;28;20122;-67
2022/01/18 05:28:49;;;;;;;9.73;5.25;;;;;;;-6.88;63.83;100956.63;4974684;28;20043;-65
2022/01/18 05:31:15;;;;;;;3.42;3.10;;;;;;;-6.87;63.88;100955.72;4975286;28;20066;-69
2022/01/18 05:33:42;;;;;;;5.60;2.87;;;;;;;-7.01;63.90;100928.56;4975519;28;20117;-68
2022/01/18 05:36:09;;;;;;;3.97;3.20;;;;;;;-6.92;64.27;100959.34;4976612;28;20038;-70
2022/01/18 05:38:35;;;;;;;3.95;3.00;;;;;;;-6.85;64.10;100965.19;4983766;28;20041;-69
2022/01/18 05:41:03;;;;;;;3.10;2.80;;;;;;;-6.90;64.08;100955.81;4994586;28;20113;-69
2022/01/18 05:43:28;;;;;;;3.50;2.97;;;;;;;-6.84;64.02;100961.72;4995551;28;20034;-69
2022/01/18 05:45:54;;;;;;;3.70;3.00;;;;;;;-6.88;64.24;100973.91;4995299;28;20038;-68
2022/01/18 05:48:19;;;;;;;2.60;2.30;;;;;;;-6.93;64.43;100947.31;4995212;28;20034;-66
2022/01/18 05:50:45;;;;;;;4.43;3.00;;;;;;;-6.91;64.18;100961.91;4995668;28;20486;-69
2022/01/18 05:53:10;;;;;;;4.83;3.20;;;;;;;-6.93;64.37;100978.38;4995063;28;20027;-68
2022/01/18 05:55:36;;;;;;;2.83;2.63;;;;;;;-6.96;64.13;100968.94;4994373;28;20065;-69
2022/01/18 05:58:02;;;;;;;3.80;2.73;;;;;;;-6.87;64.52;100988.53;5011740;28;20085;-72
2022/01/18 06:00:29;;;;;;;5.07;2.70;;;;;;;-6.86;64.52;101003.19;5016536;28;20022;-70
2022/01/18 06:08:10;;;;;;;4.82;3.25;;;;;;;-6.82;64.52;101016.88;4994847;28;20045;-66
2022/01/18 06:10:36;;;;;;;5.78;2.90;;;;;;;-6.87;64.74;101029.97;4994366;28;20042;-66
2022/01/18 06:13:04;;;;;;;3.95;2.92;;;;;;;-6.93;64.93;101019.81;4994254;28;20121;-68
2022/01/18 06:15:30;;;;;;;6.55;2.97;;;;;;;-6.89;64.87;101029.19;4993697;28;20064;-66
2022/01/18 06:17:57;;;;;;;4.25;2.80;;;;;;;-7.08;64.51;101002.97;4993894;28;20176;-68
2022/01/18 06:20:23;;;;;;;5.82;3.83;;;;;;;-6.90;65.23;101036.09;4992239;28;20446;-68
2022/01/18 06:22:51;;;;;;;5.93;3.30;;;;;;;-6.79;65.11;101059.06;4993491;28;20098;-66
2022/01/18 06:25:21;;;;;;;9.55;3.00;;;;;;;-6.87;64.78;101061.03;4993100;28;20136;-66
2022/01/18 06:27:47;;;;;;;5.65;3.22;;;;;;;-6.90;65.18;101067.16;4994342;28;20470;-67
2022/01/18 06:30:13;;;;;;;7.10;2.83;;;;;;;-6.85;64.58;101079.13;4994339;28;20041;-68
2022/01/18 06:32:40;;;;;;;4.90;2.57;;;;;;;-6.85;64.77;101068.78;4993341;28;20178;-68
2022/01/18 06:35:07;;;;;;;6.63;2.75;;;;;;;-7.03;65.08;101044.25;4993323;28;20734;-67
2022/01/18 06:37:35;;;;;;;3.72;2.58;;;;;;;-6.79;64.29;101079.78;4993538;28;20463;-64
2022/01/18 06:40:03;;;;;;;3.13;2.63;;;;;;;-6.83;64.69;101078.19;4993179;28;20041;-64
2022/01/18 06:42:30;;;;;;;2.80;2.55;;;;;;;-6.92;64.91;101057.75;4994556;28;20034;-70
2022/01/18 06:44:56;;;;;;;3.28;2.90;;;;;;;-6.83;64.92;101067.81;4994001;28;20042;-70
2022/01/18 06:47:21;;;;;;;4.67;2.60;;;;;;;-6.75;64.95;101094.34;4994027;28;20172;-72
2022/01/18 06:49:47;;;;;;;2.97;2.77;;;;;;;-6.80;65.62;101097.97;4993907;28;20054;-70
2022/01/18 06:52:13;;;;;;;6.97;4.10;;;;;;;-6.77;65.00;101103.06;4994960;28;20038;-72
2022/01/18 06:54:38;;;;;;;2.90;2.43;;;;;;;-6.78;65.29;101115.16;4994570;28;20053;-67
2022/01/18 06:57:04;;;;;;;3.83;2.80;;;;;;;-6.88;65.46;101105.97;4993753;28;20035;-68
2022/01/18 06:59:30;;;;;;;3.40;3.05;;;;;;;-6.83;66.04;101122.22;4994053;28;20045;-70
2022/01/18 07:01:55;;;;;;;3.70;2.70;;;;;;;-6.91;65.62;101100.88;4994717;28;20493;-73
2022/01/18 07:04:22;;;;;;;5.20;3.70;;;;;;;-6.80;65.56;101134.22;4993567;28;20054;-73
2022/01/18 07:06:47;;;;;;;3.95;2.85;;;;;;;-6.79;65.74;101151.44;4993851;28;20042;-66
2022/01/18 07:09:15;;;;;;;5.67;2.83;;;;;;;-6.75;65.45;101166.00;4994384;28;20035;-68
2022/01/18 07:11:41;;;;;;;8.80;3.25;;;;;;;-6.74;65.70;101170.28;4993470;28;20520;-72
2022/01/18 07:14:07;;;;;;;6.95;2.83;;;;;;;-6.72;65.33;101176.28;4993866;28;20043;-69
2022/01/18 07:16:33;;;;;;;3.33;2.73;;;;;;;-6.77;65.39;101160.03;4993682;28;20070;-71
2022/01/18 07:18:58;;;;;;;3.33;3.03;;;;;;;-6.71;66.06;101181.41;4993806;28;20042;-69
2022/01/18 07:21:24;;;;;;;3.20;2.70;;;;;;;-7.11;65.76;101113.53;4993164;28;20410;-76
2022/01/18 07:23:52;;;;;;;3.37;2.93;;;;;;;-6.68;65.84;101196.03;4977126;28;20109;-72
2022/01/18 07:26:18;;;;;;;5.22;2.83;;;;;;;-6.75;66.07;101190.16;4977106;28;20074;-74
2022/01/18 07:28:43;;;;;;;8.00;3.33;;;;;;;-6.76;66.37;101196.25;4975731;28;20054;-67
2022/01/18 07:31:09;;;;;;;8.00;3.10;;;;;;;-6.73;66.34;101209.09;4973790;28;20410;-67
2022/01/18 07:33:36;;;;;;;3.30;2.90;;;;;;;-6.76;66.22;101208.34;4975226;28;20039;-70
2022/01/18 07:36:02;;;;;;;4.65;3.20;;;;;;;-6.71;66.60;101212.50;4973898;28;20035;-72
2022/01/18 07:38:28;;;;;;;5.47;3.05;;;;;;;-6.73;66.80;101224.66;4976561;28;20050;-72
2022/01/18 07:40:54;;;;;;;4.97;2.90;;;;;;;-6.80;66.85;101207.59;4976288;28;20035;-73
2022/01/18 07:43:20;;;;;;;4.50;2.97;;;;;;;-6.75;66.66;101221.25;4977309;28;20419;-73
2022/01/18 07:45:50;;;;;;;5.18;3.00;;;;;;;-6.75;67.05;101218.66;4979479;28;20045;-68
2022/01/18 07:48:17;;;;;;;3.50;3.00;;;;;;;-6.76;66.58;101214.38;4978654;28;20039;-69
2022/01/18 07:50:43;;;;;;;4.80;3.42;;;;;;;-6.69;66.91;101239.22;4978517;28;20482;-65
2022/01/18 07:53:10;;;;;;;10.20;3.67;;;;;;;-6.74;67.34;101237.63;4977733;28;20050;-73
2022/01/18 07:55:35;;;;;;;4.32;3.08;;;;;;;-6.74;67.12;101256.63;4977821;28;20126;-73
2022/01/18 07:58:01;;;;;;;6.27;3.60;;;;;;;-6.73;67.31;101254.88;4977361;28;20125;-72
2022/01/18 08:00:27;;;;;;;4.67;2.67;;;;;;;-6.70;67.08;101260.81;4977289;28;20030;-71
2022/01/18 08:02:55;;;;;;;7.33;3.43;;;;;;;-6.81;67.44;101249.06;4977324;28;20406;-74
2022/01/18 08:05:25;;;;;;;5.05;4.38;;;;;;;-6.65;67.32;101279.72;4977876;28;20317;-73
2022/01/18 08:07:51;;;;;;;3.50;3.10;;;;;;;-6.64;67.13;101259.84;4977470;28;20050;-73
2022/01/18 08:10:18;;;;;;;7.23;3.10;;;;;;;-6.85;67.29;101230.16;4978399;28;20402;-71
2022/01/18 08:12:44;;;;;;;5.88;2.90;;;;;;;-6.64;67.27;101257.25;4980523;28;20544;-67
2022/01/18 08:15:16;;;;;;;4.43;3.22;;;;;;;-6.81;67.83;101242.16;4995523;28;20051;-66
2022/01/18 08:17:44;;;;;;;6.45;3.35;;;;;;;-6.68;67.90;101255.59;4979342;28;20037;-70
2022/01/18 08:20:13;;;;;;;3.95;3.53;;;;;;;-6.64;67.24;101270.19;4977388;28;20046;-70
2022/01/18 08:22:44;;;;;;;4.10;3.65;;;;;;;-6.60;67.13;101283.03;4978280;28;20034;-71
2022/01/18 08:25:12;;;;;;;8.88;3.83;;;;;;;-6.56;67.50;101284.63;4978692;28;20043;-76
2022/01/18 08:27:38;;;;;;;6.25;3.72;;;;;;;-6.53;67.10;101277.66;4978475;28;20125;-75
2022/01/18 08:30:07;;;;;;;6.10;3.13;;;;;;;-6.46;67.96;101290.41;4977091;28;20446;-77
2022/01/18 08:32:32;;;;;;;10.73;3.30;;;;;;;-6.51;68.16;101284.50;4976519;28;20522;-72
2022/01/18 08:34:58;;;;;;;3.87;3.17;;;;;;;-6.60;67.84;101285.59;4976109;28;20035;-68
2022/01/18 08:37:23;;;;;;;4.43;3.80;;;;;;;-6.52;67.88;101300.09;4975972;28;20047;-68
2022/01/18 08:39:50;;;;;;;6.70;2.80;;;;;;;-6.41;67.72;101309.25;4974434;28;20117;-67
2022/01/18 08:42:16;;;;;;;5.83;3.10;;;;;;;-6.45;67.61;101307.66;4975556;28;20494;-66
2022/01/18 08:44:43;;;;;;;3.43;2.97;;;;;;;-6.34;67.49;101333.28;4975358;28;20031;-72
2022/01/18 08:47:13;;;;;;;3.65;3.22;;;;;;;-6.34;67.86;101325.53;4976258;28;20077;-73
2022/01/18 08:49:39;;;;;;;6.07;3.95;;;;;;;-6.33;67.60;101343.63;4975379;28;20050;-67
2022/01/18 08:52:05;;;;;;;4.63;2.73;;;;;;;-6.29;67.59;101355.59;4975556;28;20433;-70
2022/01/18 08:54:31;;;;;;;2.70;2.50;;;;;;;-6.30;67.36;101358.22;4975193;28;20045;-66
2022/01/18 08:56:57;;;;;;;7.17;2.83;;;;;;;-6.29;67.64;101365.13;4975617;28;20035;-70
2022/01/18 08:59:23;;;;;;;5.10;2.67;;;;;;;-6.34;67.23;101374.75;4974432;28;20049;-72
2022/01/18 09:01:49;;;;;;;5.15;3.38;;;;;;;-6.35;66.99;101370.47;4975724;28;20145;-79
2022/01/18 09:04:22;;;;;;;2.83;2.58;;;;;;;-6.19;67.13;101400.25;4959618;28;20141;-78
2022/01/18 09:06:50;;;;;;;5.68;3.00;;;;;;;-6.15;67.48;101407.06;4976283;28;20576;-76
2022/01/18 09:09:18;;;;;;;4.95;2.67;;;;;;;-6.12;67.41;101406.97;4974579;28;20133;-70
2022/01/18 09:11:45;;;;;;;4.82;3.40;;;;;;;-6.22;66.91;101395.16;4975763;28;20061;-70
2022/01/18 09:14:14;;;;;;;4.10;3.45;;;;;;;-6.11;66.99;101406.09;4975724;28;20046;-76
2022/01/18 09:16:39;;;;;;;;;;;;;;;-6.04;67.29;101425.78;4976356;28;20035;-72
2022/01/18 09:19:05;;;;;;;3.00;2.43;;;;;;;-6.13;67.39;101413.06;4975409;28;19918;-70
2022/01/18 09:21:33;;;;;;;4.90;3.10;;;;;;;-6.07;66.75;101418.09;4975065;28;20469;-71
2022/01/18 09:23:59;;;;;;;4.75;2.63;;;;;;;-6.16;66.47;101386.38;4975499;28;20035;-73
2022/01/18 09:26:25;;;;;;;7.75;2.65;;;;;;;-6.01;66.41;101417.94;4975550;28;20035;-72
2022/01/18 09:28:50;;;;;;;5.67;2.90;;;;;;;-5.94;67.06;101429.84;4975531;28;20525;-73
2022/01/18 09:31:16;;;;;;;4.20;3.00;;;;;;;-5.93;66.72;101426.34;4975165;28;20122;-74
2022/01/18 09:33:42;;;;;;;3.33;3.03;;;;;;;-5.88;66.42;101440.88;4975002;28;20089;-77
2022/01/18 09:36:08;;;;;;;9.47;3.63;;;;;;;-5.90;66.58;101434.94;4976526;28;20077;-75
2022/01/18 09:38:34;;;;;;;5.37;3.33;;;;;;;-5.77;66.76;101442.31;4959325;28;20633;-77
2022/01/18 09:41:09;;;;;;;3.58;2.72;;;;;;;-5.81;66.00;101429.44;4977291;28;20038;-79
2022/01/18 09:43:35;;;;;;;5.25;2.70;;;;;;;-5.71;66.56;101462.06;4976182;28;20410;-73
2022/01/18 09:46:01;;;;;;;6.13;3.60;;;;;;;-5.75;66.09;101450.91;4975407;28;20037;-72
2022/01/18 09:48:26;;;;;;;2.43;2.10;;;;;;;-5.72;65.76;101474.16;4975318;28;20039;-70
2022/01/18 09:50:52;;;;;;;4.13;2.57;;;;;;;-5.74;66.24;101469.91;4974864;28;20073;-67
2022/01/18 09:53:18;;;;;;;5.17;2.87;;;;;;;-5.70;66.30;101471.53;4985814;28;20030;-67
2022/01/18 09:55:44;;;;;;;8.18;3.17;;;;;;;-5.73;65.94;101464.69;4984489;28;20543;-70
2022/01/18 09:58:11;;;;;;;5.70;2.65;;;;;;;-5.71;66.57;101468.09;4974443;28;20092;-68
2022/01/18 10:00:40;;;;;;;4.60;2.35;;;;;;;-5.59;65.86;101477.25;4974396;28;20080;-69
2022/01/18 10:03:11;;;;;;;3.33;2.30;;;;;;;-5.68;65.51;101451.59;4974134;28;20069;-70
2022/01/18 10:05:38;;;;;;;6.72;2.47;;;;;;;-5.57;66.09;101480.66;4974270;28;20054;-71
2022/01/18 10:08:11;;;;;;;8.27;4.25;;;;;;;-5.56;66.44;101474.56;4973085;28;20485;-69
2022/01/18 10:10:42;;;;;;;9.85;3.38;;;;;;;-5.52;65.51;101476.19;4974085;28;20079;-68
2022/01/18 10:13:15;;;;;;;4.80;3.22;;;;;;;-5.68;65.78;101456.78;4974500;28;20042;-68
2022/01/18 10:16:15;;;;;;;3.38;2.78;;;;;;;-5.47;66.23;101497.69;4974773;28;20046;-70
2022/01/18 10:18:53;;;;;;;9.50;4.07;;;;;;;-5.67;65.90;101453.28;4975221;28;20030;-73
2022/01/18 10:21:28;;;;;;;7.47;3.42;;;;;;;-5.45;66.24;101488.13;4975006;28;20053;-65
2022/01/18 10:24:24;;;;;;;6.80;4.85;;;;;;;-5.37;65.46;101496.53;4974646;28;20062;-67
2022/01/18 10:26:53;;;;;;;4.45;2.72;;;;;;;-5.39;64.50;101489.69;4973581;28;20039;-69
2022/01/18 10:29:24;;;;;;;3.53;2.67;;;;;;;-5.35;64.79;101491.31;4973908;28;20042;-68
2022/01/18 10:37:20;;;;;;;4.20;2.88;;;;;;;-5.23;65.12;101511.72;4973499;28;20109;-68
2022/01/18 10:39:50;;;;;;;3.35;2.50;;;;;;;-5.10;65.29;101513.06;4973516;28;20038;-67
2022/01/18 10:42:30;;;;;;;4.78;2.72;;;;;;;-5.11;64.90;101526.09;4972996;28;20051;-65
2022/01/18 10:45:05;;;;;;;2.53;2.10;;;;;;;-5.21;64.28;101504.72;4973616;28;20516;-68
2022/01/18 10:47:33;;;;;;;2.40;2.10;;;;;;;-5.19;64.98;101513.34;4974097;28;20391;-65
2022/01/18 10:50:13;;;;;;;3.90;2.60;;;;;;;-5.22;65.07;101491.78;4973748;28;20211;-67
2022/01/18 10:52:39;;;;;;;3.35;2.65;;;;;;;-5.14;64.63;101521.00;4974010;28;20039;-68
2022/01/18 10:55:05;;;;;;;6.53;3.63;;;;;;;-5.15;65.15;101521.91;4973463;28;20092;-65
2022/01/18 10:57:38;;;;;;;3.30;2.90;;;;;;;-5.16;65.27;101522.78;4972830;28;20034;-68
2022/01/18 11:00:22;;;;;;;6.88;2.63;;;;;;;-5.19;64.97;101518.53;4973067;28;20039;-64
2022/01/18 11:03:10;;;;;;;3.28;2.97;;;;;;;-5.08;64.45;101536.41;4972982;28;20035;-67
2022/01/18 11:05:43;;;;;;;5.57;2.58;;;;;;;-5.05;64.82;101531.13;4972365;28;20055;-66
2022/01/18 11:08:09;;;;;;;3.63;2.72;;;;;;;-5.06;64.54;101521.63;4972995;28;20105;-62
2022/01/18 11:10:42;;;;;;;3.90;2.85;;;;;;;-4.97;64.48;101533.47;4973249;28;20042;-62
2022/01/18 11:13:17;;;;;;;3.13;2.80;;;;;;;-4.93;64.85;101529.88;4973111;28;20035;-63
2022/01/18 11:15:48;;;;;;;4.20;2.53;;;;;;;-4.96;64.41;101525.63;4973036;28;20111;-65
2022/01/18 11:18:17;;;;;;;6.28;2.80;;;;;;;-4.89;64.54;101542.78;4974193;28;20027;-65
2022/01/18 11:20:47;;;;;;;3.35;2.50;;;;;;;-4.91;63.80;101538.53;4976120;28;20070;-63
2022/01/18 11:23:13;;;;;;;3.58;2.90;;;;;;;-5.01;64.10;101533.56;4975659;28;20449;-64
2022/01/18 11:25:39;;;;;;;5.50;2.50;;;;;;;-5.05;64.45;101541.50;4977056;28;20041;-63
2022/01/18 11:28:07;;;;;;;2.93;2.73;;;;;;;-5.03;64.85;101550.94;4977100;28;20043;-62
2022/01/18 11:30:38;;;;;;;5.82;3.33;;;;;;;-5.10;64.71;101540.78;4976860;28;20582;-65
2022/01/18 11:33:10;;;;;;;6.65;2.78;;;;;;;-5.07;65.02;101543.28;4976718;28;20038;-64
2022/01/18 11:35:46;;;;;;;6.15;3.53;;;;;;;-5.04;65.09;101553.59;4976985;28;20081;-63
2022/01/18 11:38:27;;;;;;;4.35;2.50;;;;;;;-5.07;64.56;101551.09;4976060;28;20046;-64
2022/01/18 11:40:57;;;;;;;6.63;2.53;;;;;;;-5.10;64.97;101553.78;4976697;28;20407;-64
2022/01/18 11:43:36;;;;;;;5.15;3.33;;;;;;;-5.08;64.57;101562.38;4976647;28;20038;-65
2022/01/18 11:46:40;;;;;;;5.80;2.40;;;;;;;-5.05;65.02;101554.50;4976721;28;20541;-65
2022/01/18 11:49:15;;;;;;;3.33;2.42;;;;;;;-5.04;64.90;101562.25;4965743;28;20035;-64
2022/01/18 11:52:10;;;;;;;4.28;3.22;;;;;;;-5.02;65.30;101563.03;4976826;28;20365;-64
2022/01/18 11:57:22;;;;;;;5.35;2.83;;;;;;;-5.11;64.70;101571.09;4976510;28;20118;-64
2022/01/18 11:59:58;;;;;;;5.53;3.60;;;;;;;-5.20;65.02;101557.53;4976123;28;20043;-65
2022/01/18 12:02:38;;;;;;;6.72;3.38;;;;;;;-5.15;64.73;101553.91;4975954;28;20061;-64
2022/01/18 12:05:14;;;;;;;3.60;3.30;;;;;;;-5.09;65.14;101571.91;4976237;28;20422;-63
2022/01/18 12:07:41;;;;;;;3.47;3.15;;;;;;;-5.10;64.81;101565.03;4974990;28;20521;-65
2022/01/18 12:10:32;;;;;;;5.18;2.50;;;;;;;-5.06;65.59;101583.97;4976070;28;20498;-63
2022/01/18 12:13:04;;;;;;;4.53;3.00;;;;;;;-5.15;65.85;101566.91;4975936;28;20043;-63
2022/01/18 12:15:32;;;;;;;7.90;4.05;;;;;;;-5.11;65.20;101588.44;4976010;28;20061;-62
2022/01/18 12:18:22;;;;;;;5.93;3.60;;;;;;;-5.18;65.79;101579.97;4976266;28;20093;-63
2022/01/18 12:20:50;;;;;;;7.38;3.90;;;;;;;-5.28;66.21;101565.53;4976010;28;20491;-62
2022/01/18 12:23:17;;;;;;;4.85;3.80;;;;;;;-5.21;65.96;101595.59;4975410;28;20537;-66
2022/01/18 12:32:27;;;;;;;5.43;2.80;;;;;;;-5.24;66.31;101597.44;4974684;28;20055;-65
2022/01/18 12:34:29;;;;;;;4.75;2.65;;;;;;;-5.32;65.89;101603.69;4972478;28;20097;-64
2022/01/18 12:36:57;;;;;;;4.22;2.60;;;;;;;-5.32;66.49;101606.28;4975781;28;20039;-65
2022/01/18 12:39:23;;;;;;;7.32;2.83;;;;;;;-5.34;66.47;101602.91;4975727;28;20098;-64
2022/01/18 12:41:56;;;;;;;5.35;3.25;;;;;;;-5.46;66.10;101592.84;4975775;28;20093;-63
2022/01/18 12:44:24;;;;;;;6.43;3.10;;;;;;;-5.50;67.05;101595.53;4975835;28;20062;-66
2022/01/18 12:46:52;;;;;;;6.15;4.30;;;;;;;-5.42;66.83;101610.03;4975461;28;20042;-63
2022/01/18 12:49:19;;;;;;;5.55;2.90;;;;;;;-5.47;67.08;101614.50;4975538;28;20034;-63
2022/01/18 12:51:44;;;;;;;8.57;4.00;;;;;;;-5.55;66.78;101608.66;4975302;28;20131;-63
2022/01/18 12:54:10;;;;;;;10.70;5.23;;;;;;;-5.63;67.50;101595.03;4975442;28;20133;-63
2022/01/18 12:56:35;;;;;;;7.97;3.50;;;;;;;-5.62;67.64;101612.28;4975232;28;20097;-64
2022/01/18 12:59:04;;;;;;;6.33;3.53;;;;;;;-5.72;67.23;101600.47;4975620;28;20038;-63